Terminal Aerodrome Forecast
Issued by NWS

Home | Current Version | Previous Version | Text Only | Print | Product List | Glossary On
Versions: 1 2 3 4 5 6 7 8 9 10 11 12 13 14 15 16 17 18
000
FTUS43 KFGF 011100
TAFBJI
TAF
KBJI 011120Z 0112/0212 28005KT P6SM BKN005
     FM011400 29007KT P6SM BKN250
     FM012300 30009KT P6SM VCSH BKN050
     FM020300 24006KT P6SM SCT060=

USA.gov is the U.S. government's official web portal to all federal, state and local government web resources and services.